Time;durP1;ratioP1;P1;durP2;ratioP2;P2;SDS_P1;SDS_P2;PMS_P1;PMS_P2;Temp;Humidity;BMP_temperature;BMP_pressure;BME280_temperature;BME280_humidity;BME280_pressure;Samples;Min_cycle;Max_cycle;Signal;HPM_P1;HPM_P2
2022/06/19 00:01:00;;;;;;;6.13;4.90;;;19.70;99.90;;;;;;5064745;28;20190;-78
2022/06/19 00:03:40;;;;;;;5.27;4.40;;;19.70;99.90;;;;;;5049314;28;20241;-75
2022/06/19 00:06:08;;;;;;;4.10;3.70;;;19.70;99.90;;;;;;5047560;28;20172;-76
2022/06/19 00:08:36;;;;;;;7.03;4.33;;;19.60;99.90;;;;;;5022924;28;20187;-78
2022/06/19 00:11:05;;;;;;;5.57;3.97;;;19.50;99.90;;;;;;5030205;28;20555;-78
2022/06/19 00:13:33;;;;;;;6.93;4.23;;;19.50;99.90;;;;;;5041083;28;20213;-79
2022/06/19 00:16:00;;;;;;;5.83;4.27;;;19.50;99.90;;;;;;5030128;28;20192;-78
2022/06/19 00:18:27;;;;;;;6.07;4.20;;;19.50;99.90;;;;;;5025260;28;20727;-78
2022/06/19 00:20:53;;;;;;;6.67;4.50;;;19.60;99.90;;;;;;5048896;28;20211;-79
2022/06/19 00:23:20;;;;;;;7.03;3.87;;;19.50;99.90;;;;;;5027173;28;20191;-78
2022/06/19 00:25:47;;;;;;;5.00;4.10;;;19.40;99.90;;;;;;5064410;28;20647;-78
2022/06/19 00:28:14;;;;;;;5.33;3.93;;;19.40;99.90;;;;;;5031489;28;20382;-78
2022/06/19 00:30:41;;;;;;;5.67;4.10;;;19.40;99.90;;;;;;5052343;28;20191;-77
2022/06/19 00:33:08;;;;;;;7.57;4.43;;;19.40;99.90;;;;;;5030312;28;20673;-78
2022/06/19 00:35:34;;;;;;;6.47;4.27;;;19.40;99.90;;;;;;5027326;28;20257;-78
2022/06/19 00:38:09;;;;;;;5.07;4.30;;;19.40;99.90;;;;;;5053175;28;20198;-78
2022/06/19 00:40:35;;;;;;;6.17;4.23;;;19.30;99.90;;;;;;5051859;28;20211;-78
2022/06/19 00:43:02;;;;;;;7.07;4.33;;;19.40;99.90;;;;;;5063397;28;20652;-78
2022/06/19 00:45:37;;;;;;;6.20;4.30;;;19.20;99.90;;;;;;5034151;28;20187;-79
2022/06/19 00:48:16;;;;;;;6.90;4.47;;;19.30;99.90;;;;;;5025105;28;20236;-78
2022/06/19 00:50:47;;;;;;;6.30;4.70;;;19.30;99.90;;;;;;5035563;28;20262;-79
2022/06/19 00:53:20;;;;;;;5.93;4.67;;;19.30;99.90;;;;;;5063055;28;20259;-78
2022/06/19 00:55:50;;;;;;;4.70;4.30;;;19.30;99.90;;;;;;5035640;28;20183;-78
2022/06/19 00:58:40;;;;;;;5.60;4.97;;;19.20;99.90;;;;;;5034782;28;20222;-78
2022/06/19 01:01:13;;;;;;;6.43;4.80;;;19.20;99.90;;;;;;5047446;28;20187;-78
2022/06/19 01:04:06;;;;;;;6.53;5.00;;;19.20;99.90;;;;;;5056646;28;20179;-78
2022/06/19 01:06:33;;;;;;;8.00;4.67;;;19.20;99.90;;;;;;5052934;28;20183;-78
2022/06/19 01:09:01;;;;;;;8.73;5.20;;;19.10;99.90;;;;;;5034262;28;20187;-79
2022/06/19 01:11:35;;;;;;;6.70;5.30;;;19.10;99.90;;;;;;5033010;28;20203;-77
2022/06/19 01:14:03;;;;;;;8.43;5.23;;;19.00;99.90;;;;;;5031482;28;20277;-78
2022/06/19 01:16:30;;;;;;;8.00;4.90;;;19.00;99.90;;;;;;5049991;28;20659;-78
2022/06/19 01:18:59;;;;;;;5.97;5.03;;;19.10;99.90;;;;;;5050172;28;20211;-78
2022/06/19 01:21:40;;;;;;;5.43;4.60;;;19.10;99.90;;;;;;5031144;28;20210;-78
2022/06/19 01:24:44;;;;;;;8.13;4.83;;;19.10;99.90;;;;;;5048734;28;20235;-78
2022/06/19 01:28:45;;;;;;;7.73;4.67;;;19.10;99.90;;;;;;5026336;28;20188;-76
2022/06/19 01:30:03;;;;;;;5.33;4.57;;;19.10;99.90;;;;;;5039515;28;20191;-79
2022/06/19 01:32:33;;;;;;;4.87;4.33;;;19.10;99.90;;;;;;5046946;28;20694;-79
2022/06/19 01:35:02;;;;;;;6.60;4.43;;;19.10;99.90;;;;;;5033861;28;20194;-78
2022/06/19 01:37:30;;;;;;;5.73;4.60;;;19.10;99.90;;;;;;5031114;28;20218;-78
2022/06/19 01:40:16;;;;;;;8.00;4.70;;;19.10;99.90;;;;;;5040489;28;20239;-79
2022/06/19 01:42:43;;;;;;;5.37;4.40;;;19.10;99.90;;;;;;5049334;28;20195;-78
2022/06/19 01:45:10;;;;;;;5.43;4.30;;;19.10;99.90;;;;;;5057350;28;21185;-77
2022/06/19 01:47:37;;;;;;;4.70;3.97;;;19.20;99.90;;;;;;5058600;28;20196;-78
2022/06/19 01:50:11;;;;;;;8.67;4.47;;;19.10;99.90;;;;;;5036824;28;20651;-77
2022/06/19 01:52:43;;;;;;;7.80;4.23;;;19.20;99.90;;;;;;5040507;28;20224;-78
2022/06/19 01:55:15;;;;;;;5.17;4.30;;;19.10;99.90;;;;;;5042382;28;20203;-78
2022/06/19 01:57:52;;;;;;;5.53;3.90;;;19.10;99.90;;;;;;5036721;28;20195;-79
2022/06/19 02:00:26;;;;;;;4.73;3.93;;;19.10;99.90;;;;;;5036966;28;20198;-78
2022/06/19 02:03:32;;;;;;;5.07;4.07;;;19.00;99.90;;;;;;5045906;28;20203;-78
2022/06/19 02:05:58;;;;;;;5.80;4.03;;;19.00;99.90;;;;;;5023565;28;20200;-78
2022/06/19 02:08:29;;;;;;;8.00;4.03;;;19.00;99.90;;;;;;5021619;28;20188;-78
2022/06/19 02:11:02;;;;;;;6.87;4.40;;;19.00;99.90;;;;;;5059457;28;20253;-78
2022/06/19 02:13:30;;;;;;;4.23;3.80;;;18.90;99.90;;;;;;5051643;28;20593;-79
2022/06/19 02:15:56;;;;;;;7.97;4.47;;;18.80;99.90;;;;;;5050194;28;20306;-78
2022/06/19 02:18:31;;;;;;;7.83;4.50;;;18.80;99.90;;;;;;5050432;28;20294;-78
2022/06/19 02:20:57;;;;;;;5.77;4.30;;;18.70;99.90;;;;;;5035193;28;20201;-78
2022/06/19 02:23:32;;;;;;;6.57;4.67;;;18.60;99.90;;;;;;5033109;28;20241;-79
2022/06/19 02:26:00;;;;;;;6.67;4.50;;;18.60;99.90;;;;;;5043042;28;20934;-78
2022/06/19 02:28:30;;;;;;;6.13;4.43;;;18.60;99.90;;;;;;5036910;28;20536;-78
2022/06/19 02:30:57;;;;;;;5.63;4.77;;;18.50;99.90;;;;;;5030268;28;20242;-79
2022/06/19 02:33:28;;;;;;;7.07;4.53;;;18.50;99.90;;;;;;5024764;28;20208;-78
2022/06/19 02:35:56;;;;;;;4.73;4.20;;;18.50;99.90;;;;;;5024850;28;20202;-79
2022/06/19 02:38:23;;;;;;;7.90;5.00;;;18.50;99.90;;;;;;5032558;28;20210;-78
2022/06/19 02:41:14;;;;;;;8.10;5.07;;;18.70;99.90;;;;;;5032213;28;20179;-78
2022/06/19 02:43:40;;;;;;;8.37;4.80;;;18.70;99.90;;;;;;5030978;28;20230;-78
2022/06/19 02:46:07;;;;;;;6.57;4.70;;;18.80;99.90;;;;;;5057121;28;20183;-78
2022/06/19 02:48:34;;;;;;;5.57;4.67;;;18.80;99.90;;;;;;5033337;28;20567;-79
2022/06/19 02:51:04;;;;;;;7.50;4.97;;;18.80;99.90;;;;;;5036768;28;20251;-78
2022/06/19 02:53:30;;;;;;;6.67;4.93;;;18.70;99.90;;;;;;5031014;28;20267;-78
2022/06/19 02:56:00;;;;;;;6.90;4.37;;;18.70;99.90;;;;;;5033291;28;20910;-80
2022/06/19 02:58:27;;;;;;;6.07;4.50;;;18.80;99.90;;;;;;5027977;28;20218;-78
2022/06/19 03:00:54;;;;;;;6.87;4.77;;;18.80;99.90;;;;;;5066476;28;20182;-79
2022/06/19 03:03:36;;;;;;;6.30;4.70;;;18.80;99.90;;;;;;5034977;28;20593;-79
2022/06/19 03:06:06;;;;;;;7.60;4.80;;;18.80;99.90;;;;;;5046296;28;20243;-79
2022/06/19 03:08:33;;;;;;;14.13;4.67;;;18.80;99.90;;;;;;5032476;28;20192;-78
2022/06/19 03:11:04;;;;;;;7.47;4.43;;;18.90;99.90;;;;;;5048870;28;20197;-78
2022/06/19 03:13:33;;;;;;;6.63;4.70;;;18.90;99.90;;;;;;5030040;28;20176;-79
2022/06/19 03:16:07;;;;;;;5.30;4.33;;;18.80;99.90;;;;;;5029413;28;20199;-77
2022/06/19 03:18:36;;;;;;;6.93;3.90;;;18.80;99.90;;;;;;5043995;28;20211;-78
2022/06/19 03:21:03;;;;;;;5.73;4.10;;;18.80;99.90;;;;;;5049846;28;20603;-78
2022/06/19 03:23:29;;;;;;;4.83;3.70;;;18.90;99.90;;;;;;5032851;28;20589;-79
2022/06/19 03:25:56;;;;;;;5.50;3.70;;;18.90;99.90;;;;;;5024697;28;20233;-78
2022/06/19 03:28:22;;;;;;;5.10;3.90;;;18.90;99.90;;;;;;5032920;28;20274;-78
2022/06/19 03:30:55;;;;;;;5.07;3.80;;;18.90;99.90;;;;;;5050069;28;20587;-78
2022/06/19 03:33:22;;;;;;;4.77;3.40;;;18.90;99.90;;;;;;5029864;28;20204;-79
2022/06/19 03:35:49;;;;;;;4.97;3.50;;;19.00;99.90;;;;;;5022725;28;20184;-79
2022/06/19 03:38:15;;;;;;;5.23;3.27;;;19.00;99.90;;;;;;5036396;28;20187;-79
2022/06/19 03:40:45;;;;;;;6.00;3.63;;;19.00;99.90;;;;;;5047285;28;20234;-78
2022/06/19 03:43:12;;;;;;;4.90;3.20;;;19.10;99.90;;;;;;5032115;28;20225;-78
2022/06/19 03:45:39;;;;;;;4.53;2.80;;;19.10;99.90;;;;;;5034831;28;20199;-75
2022/06/19 03:48:08;;;;;;;7.47;2.83;;;19.20;99.90;;;;;;5030955;28;20908;-78
2022/06/19 03:50:34;;;;;;;3.13;2.67;;;19.20;99.90;;;;;;5036498;28;20188;-78
2022/06/19 03:53:01;;;;;;;4.30;2.70;;;19.20;99.90;;;;;;5028871;28;20246;-78
2022/06/19 03:55:27;;;;;;;5.93;3.00;;;19.20;99.90;;;;;;5022671;28;20187;-78
2022/06/19 03:57:54;;;;;;;4.97;2.63;;;19.20;99.90;;;;;;5032599;28;20197;-78
2022/06/19 04:00:20;;;;;;;4.23;2.60;;;19.20;99.90;;;;;;5054864;28;20218;-79
2022/06/19 04:02:47;;;;;;;3.73;2.70;;;19.20;99.90;;;;;;5031687;28;20180;-79
2022/06/19 04:05:14;;;;;;;7.20;2.70;;;19.30;99.90;;;;;;5049801;28;20191;-78
2022/06/19 04:07:50;;;;;;;3.27;2.20;;;19.30;99.90;;;;;;5049423;28;20253;-79
2022/06/19 04:10:19;;;;;;;6.10;2.60;;;19.30;99.90;;;;;;5034758;28;20187;-78
2022/06/19 04:12:46;;;;;;;4.57;2.60;;;19.40;99.90;;;;;;5041270;28;20259;-78
2022/06/19 04:15:13;;;;;;;3.40;2.40;;;19.40;99.90;;;;;;5050543;28;20194;-79
2022/06/19 04:17:40;;;;;;;3.33;2.50;;;19.50;99.90;;;;;;5032140;28;20210;-78
2022/06/19 04:20:10;;;;;;;3.20;2.30;;;19.50;99.90;;;;;;5030194;28;20211;-78
2022/06/19 04:22:38;;;;;;;3.73;2.30;;;19.60;99.90;;;;;;5045821;28;20202;-79
2022/06/19 04:25:13;;;;;;;3.47;2.70;;;19.60;99.90;;;;;;5028744;28;20270;-78
2022/06/19 04:27:43;;;;;;;3.30;2.33;;;19.70;99.90;;;;;;5048951;28;20187;-78
2022/06/19 04:30:11;;;;;;;3.10;2.40;;;19.80;99.90;;;;;;5032574;28;20180;-79
2022/06/19 04:32:38;;;;;;;2.80;2.40;;;19.90;99.90;;;;;;5044276;28;20187;-79
2022/06/19 04:35:04;;;;;;;5.33;2.43;;;20.00;99.90;;;;;;5038399;28;20265;-79
2022/06/19 04:37:31;;;;;;;5.50;2.60;;;20.00;99.90;;;;;;5032918;28;20593;-79
2022/06/19 04:39:57;;;;;;;3.00;2.40;;;20.10;99.90;;;;;;5049560;28;20207;-78
2022/06/19 04:42:24;;;;;;;4.50;3.50;;;20.10;99.90;;;;;;5045217;28;20184;-76
2022/06/19 04:44:50;;;;;;;8.60;7.37;;;20.20;99.90;;;;;;5029400;28;20203;-78
2022/06/19 04:47:16;;;;;;;17.10;11.87;;;20.30;99.90;;;;;;5012845;28;20272;-79
2022/06/19 04:49:43;;;;;;;10.87;8.17;;;20.30;99.90;;;;;;5028835;28;20190;-78
2022/06/19 04:52:09;;;;;;;8.77;7.83;;;20.40;99.90;;;;;;5029166;28;20668;-78
2022/06/19 04:54:35;;;;;;;7.97;6.80;;;20.40;99.90;;;;;;5046574;28;20214;-79
2022/06/19 04:57:02;;;;;;;7.73;6.03;;;20.50;99.90;;;;;;5028101;28;20207;-78
2022/06/19 04:59:28;;;;;;;8.53;6.20;;;20.50;99.90;;;;;;5028240;28;20215;-78
2022/06/19 05:01:59;;;;;;;8.47;5.80;;;20.60;99.90;;;;;;5047825;28;20184;-79
2022/06/19 05:04:25;;;;;;;7.27;4.33;;;20.70;99.90;;;;;;5041132;28;20196;-79
2022/06/19 05:06:51;;;;;;;9.87;4.60;;;20.70;99.90;;;;;;5048143;28;20175;-79
2022/06/19 05:09:18;;;;;;;5.33;3.87;;;20.80;99.90;;;;;;5038908;28;20195;-79
2022/06/19 05:11:44;;;;;;;4.70;4.20;;;20.80;99.90;;;;;;5016093;28;20180;-79
2022/06/19 05:14:13;;;;;;;6.70;4.07;;;20.90;99.90;;;;;;5031608;28;20194;-79
2022/06/19 05:16:41;;;;;;;5.00;3.83;;;20.90;99.90;;;;;;5050106;28;20195;-79
2022/06/19 05:19:10;;;;;;;5.93;3.70;;;21.00;99.90;;;;;;5048984;28;20200;-79
2022/06/19 05:21:37;;;;;;;5.33;3.50;;;21.00;99.90;;;;;;5057647;28;20213;-79
2022/06/19 05:24:04;;;;;;;4.07;3.33;;;21.00;99.90;;;;;;5048594;28;20190;-79
2022/06/19 05:26:34;;;;;;;6.27;4.00;;;21.10;99.90;;;;;;5053338;28;20179;-76
2022/06/19 05:29:03;;;;;;;5.87;3.60;;;21.20;99.90;;;;;;5052290;28;20194;-79
2022/06/19 05:31:32;;;;;;;3.97;2.90;;;21.20;99.90;;;;;;5032747;28;20531;-79
2022/06/19 05:33:59;;;;;;;4.30;2.53;;;21.20;99.90;;;;;;5057112;28;20219;-79
2022/06/19 05:36:31;;;;;;;4.73;2.67;;;21.30;99.90;;;;;;5035502;28;20276;-79
2022/06/19 05:38:58;;;;;;;3.87;2.53;;;21.40;99.90;;;;;;5051066;28;20207;-79
2022/06/19 05:41:26;;;;;;;4.17;2.60;;;21.50;99.90;;;;;;5029069;28;20211;-79
2022/06/19 05:43:53;;;;;;;3.30;2.50;;;21.60;99.90;;;;;;5051164;28;20192;-79
2022/06/19 05:46:20;;;;;;;3.97;2.40;;;21.70;99.90;;;;;;5035483;28;20188;-79
2022/06/19 05:48:48;;;;;;;2.80;2.03;;;21.80;99.90;;;;;;5050818;28;20187;-78
2022/06/19 05:51:26;;;;;;;2.40;2.10;;;21.80;99.90;;;;;;5048644;28;20215;-79
2022/06/19 05:53:57;;;;;;;5.00;2.20;;;21.90;99.90;;;;;;5051681;28;20199;-79
2022/06/19 05:56:27;;;;;;;5.63;2.60;;;22.00;99.90;;;;;;5049696;28;20191;-79
2022/06/19 05:58:54;;;;;;;3.17;2.20;;;22.10;99.90;;;;;;5034424;28;20223;-79
2022/06/19 06:01:22;;;;;;;3.90;2.40;;;22.40;99.90;;;;;;5034455;28;20207;-79
2022/06/19 06:03:49;;;;;;;2.27;2.07;;;22.50;99.90;;;;;;5051767;28;20180;-79
2022/06/19 06:06:20;;;;;;;3.87;2.17;;;22.40;99.90;;;;;;5046101;28;20184;-79
2022/06/19 06:08:47;;;;;;;3.50;2.03;;;22.50;99.90;;;;;;5045466;28;20184;-79
2022/06/19 06:11:14;;;;;;;2.80;2.15;;;22.60;99.90;;;;;;5043236;28;20199;-79
2022/06/19 06:13:42;;;;;;;5.40;2.10;;;22.60;99.90;;;;;;5035213;28;20870;-79
2022/06/19 06:16:15;;;;;;;6.35;2.17;;;22.80;99.90;;;;;;5025822;28;20218;-79
2022/06/19 06:18:44;;;;;;;3.78;2.20;;;22.90;99.60;;;;;;5036291;28;20242;-79
2022/06/19 06:21:18;;;;;;;4.63;2.08;;;23.00;99.90;;;;;;5030825;28;20257;-79
2022/06/19 06:23:45;;;;;;;2.95;2.30;;;23.00;99.90;;;;;;5027649;28;20190;-80
2022/06/19 06:26:23;;;;;;;5.27;2.20;;;23.20;99.90;;;;;;5053219;28;20184;-79
2022/06/19 06:28:53;;;;;;;3.83;2.20;;;23.40;99.60;;;;;;5050136;28;20233;-79
2022/06/19 06:31:19;;;;;;;3.10;2.35;;;23.40;99.90;;;;;;5033040;28;20179;-79
2022/06/19 06:33:46;;;;;;;3.58;2.20;;;23.40;99.90;;;;;;5047202;28;20206;-79
2022/06/19 06:36:14;;;;;;;5.15;2.47;;;23.50;99.60;;;;;;5043902;28;20194;-80
2022/06/19 06:38:41;;;;;;;3.33;2.22;;;23.60;99.90;;;;;;5040000;28;20221;-79
2022/06/19 06:41:13;;;;;;;5.00;2.35;;;23.70;99.30;;;;;;5029462;28;20283;-79
2022/06/19 06:43:44;;;;;;;3.72;2.22;;;23.90;98.50;;;;;;5025178;28;20246;-79
2022/06/19 06:46:20;;;;;;;4.80;2.30;;;23.90;98.60;;;;;;5040020;28;20193;-80
2022/06/19 06:48:50;;;;;;;3.50;2.10;;;24.10;98.70;;;;;;5028914;28;20241;-79
2022/06/19 06:51:22;;;;;;;3.35;2.30;;;24.10;98.50;;;;;;5048280;28;20231;-79
2022/06/19 06:53:51;;;;;;;3.28;2.17;;;24.10;99.20;;;;;;5043586;28;20192;-79
2022/06/19 06:56:20;;;;;;;4.78;2.08;;;24.40;98.10;;;;;;5047383;28;20208;-80
2022/06/19 06:58:48;;;;;;;3.38;1.73;;;24.50;98.60;;;;;;5044174;28;20230;-80
2022/06/19 07:01:22;;;;;;;3.58;2.08;;;24.50;98.30;;;;;;5046970;28;20187;-76
2022/06/19 07:03:54;;;;;;;4.13;2.38;;;24.50;97.90;;;;;;5033089;28;20187;-79
2022/06/19 07:06:28;;;;;;;2.95;2.20;;;24.70;98.00;;;;;;5029194;28;20193;-80
2022/06/19 07:08:55;;;;;;;4.90;2.78;;;24.90;98.50;;;;;;5049496;28;20276;-80
2022/06/19 07:11:33;;;;;;;3.95;2.80;;;25.20;99.90;;;;;;5029289;28;20188;-79
2022/06/19 07:14:02;;;;;;;7.65;2.70;;;25.30;99.90;;;;;;5038206;28;20715;-80
2022/06/19 07:16:30;;;;;;;7.40;3.05;;;25.30;99.80;;;;;;5047727;28;20198;-80
2022/06/19 07:18:56;;;;;;;7.40;3.75;;;25.60;99.90;;;;;;5030184;28;20206;-79
2022/06/19 07:21:23;;;;;;;10.45;3.30;;;25.80;99.90;;;;;;5032914;28;20187;-80
2022/06/19 07:23:49;;;;;;;6.22;3.10;;;26.00;99.90;;;;;;5030727;28;20180;-79
2022/06/19 07:26:19;;;;;;;8.68;3.33;;;26.00;99.90;;;;;;5015909;28;20183;-80
2022/06/19 07:28:48;;;;;;;11.68;3.63;;;25.90;99.90;;;;;;5030894;28;20184;-80
2022/06/19 07:31:15;;;;;;;6.25;3.20;;;26.00;99.90;;;;;;5048363;28;20616;-80
2022/06/19 07:33:41;;;;;;;8.18;3.17;;;26.20;99.90;;;;;;5023647;28;20211;-80
2022/06/19 07:36:16;;;;;;;3.95;3.03;;;26.30;99.90;;;;;;5035588;28;20196;-79
2022/06/19 07:38:45;;;;;;;7.28;3.45;;;26.30;99.90;;;;;;5029695;28;20305;-80
2022/06/19 07:41:14;;;;;;;7.20;3.38;;;26.50;99.90;;;;;;5022924;28;20663;-80
2022/06/19 07:43:43;;;;;;;7.75;3.63;;;26.60;99.90;;;;;;5051269;28;20563;-79
2022/06/19 07:46:10;;;;;;;5.65;3.20;;;26.70;99.90;;;;;;5032292;28;20616;-80
2022/06/19 07:51:27;;;;;;;9.35;3.63;;;26.70;99.90;;;;;;5031345;28;20200;-80
2022/06/19 07:53:53;;;;;;;15.43;3.80;;;27.00;99.90;;;;;;5027448;28;20274;-80
2022/06/19 07:56:21;;;;;;;10.38;4.10;;;27.10;99.90;;;;;;5046475;28;20237;-80
2022/06/19 07:58:47;;;;;;;11.20;3.88;;;27.10;99.90;;;;;;5053111;28;20219;-78
2022/06/19 08:01:15;;;;;;;9.45;3.58;;;27.40;99.90;;;;;;5039418;28;20191;-80
2022/06/19 08:03:41;;;;;;;10.43;3.50;;;27.40;99.90;;;;;;5049421;28;20184;-78
2022/06/19 08:06:17;;;;;;;6.40;3.50;;;27.40;99.90;;;;;;5030052;28;20370;-78
2022/06/19 08:08:44;;;;;;;7.97;3.53;;;27.40;99.90;;;;;;5025479;28;20200;-78
2022/06/19 08:11:10;;;;;;;9.68;3.42;;;27.60;99.90;;;;;;5035249;28;20198;-80
2022/06/19 08:13:37;;;;;;;8.05;3.10;;;27.70;99.90;;;;;;5043580;28;20226;-80
2022/06/19 08:16:09;;;;;;;7.47;3.70;;;27.70;99.90;;;;;;5035468;28;20196;-80
2022/06/19 08:18:37;;;;;;;8.93;3.78;;;27.70;99.90;;;;;;5026188;28;20216;-80
2022/06/19 08:21:04;;;;;;;9.75;3.85;;;27.70;99.90;;;;;;5055434;28;20298;-79
2022/06/19 08:23:31;;;;;;;9.73;3.90;;;28.00;99.90;;;;;;5041074;28;20274;-80
2022/06/19 08:26:00;;;;;;;17.85;4.00;;;28.00;99.90;;;;;;5031254;28;20184;-80
2022/06/19 08:28:36;;;;;;;12.70;3.75;;;28.10;99.90;;;;;;5038480;28;20191;-79
2022/06/19 08:31:05;;;;;;;14.10;3.88;;;28.20;99.90;;;;;;5036722;28;20211;-79
2022/06/19 08:33:32;;;;;;;11.52;4.30;;;28.10;99.90;;;;;;5029814;28;20216;-81
2022/06/19 08:36:06;;;;;;;10.10;4.20;;;28.10;99.90;;;;;;5032366;28;20198;-78
2022/06/19 08:38:40;;;;;;;9.88;3.85;;;28.20;99.90;;;;;;5031419;28;20971;-80
2022/06/19 08:41:39;;;;;;;12.68;4.60;;;28.20;99.90;;;;;;5030915;28;20179;-80
2022/06/19 08:44:46;;;;;;;13.32;4.65;;;28.40;99.90;;;;;;5029924;28;20301;-80
2022/06/19 08:47:29;;;;;;;10.15;4.40;;;28.40;99.90;;;;;;5043938;28;20194;-80
2022/06/19 08:50:17;;;;;;;8.77;4.10;;;28.30;99.90;;;;;;5032951;28;20227;-80
2022/06/19 08:53:08;;;;;;;12.48;4.55;;;28.40;99.90;;;;;;5043637;28;20631;-79
2022/06/19 08:56:02;;;;;;;9.30;4.10;;;28.50;99.90;;;;;;5048620;28;20552;-80
2022/06/19 08:58:49;;;;;;;12.05;4.30;;;28.60;99.90;;;;;;5048865;28;20731;-80
2022/06/19 09:01:58;;;;;;;10.85;4.53;;;28.70;99.90;;;;;;5022029;28;20224;-80
2022/06/19 09:08:34;;;;;;;15.82;4.10;;;28.80;99.90;;;;;;5039936;28;20188;-79
2022/06/19 09:11:29;;;;;;;12.05;4.22;;;28.90;99.90;;;;;;5034128;28;20192;-79
2022/06/19 09:14:17;;;;;;;17.75;4.30;;;29.00;99.90;;;;;;5037186;28;20217;-79
2022/06/19 09:17:09;;;;;;;10.75;4.35;;;29.00;99.90;;;;;;5024013;28;20267;-79
2022/06/19 09:20:35;;;;;;;8.82;4.10;;;29.00;99.90;;;;;;5036732;28;20204;-79
2022/06/19 09:23:23;;;;;;;8.60;3.45;;;29.00;99.90;;;;;;5039561;28;20192;-80
2022/06/19 09:26:09;;;;;;;11.77;3.90;;;29.10;99.90;;;;;;5026545;28;20236;-79
2022/06/19 09:28:55;;;;;;;14.05;4.13;;;29.10;99.90;;;;;;5031093;28;20262;-80
2022/06/19 09:31:34;;;;;;;11.00;3.88;;;29.30;99.90;;;;;;5042427;28;20233;-79
2022/06/19 09:34:55;;;;;;;9.85;3.85;;;29.40;99.90;;;;;;5045569;28;20211;-80
2022/06/19 09:37:54;;;;;;;9.75;3.80;;;29.40;99.90;;;;;;5045851;28;20188;-79
2022/06/19 09:40:34;;;;;;;13.40;3.75;;;29.40;99.90;;;;;;5046711;28;20195;-79
2022/06/19 09:43:15;;;;;;;15.10;4.35;;;29.50;99.90;;;;;;5014887;28;20191;-80
2022/06/19 09:46:12;;;;;;;8.02;3.50;;;29.40;99.90;;;;;;5041251;28;20180;-80
2022/06/19 09:49:02;;;;;;;12.55;4.30;;;29.60;99.90;;;;;;5047789;28;20305;-79
2022/06/19 09:51:50;;;;;;;14.93;3.83;;;29.60;99.90;;;;;;5043178;28;20192;-79
2022/06/19 09:54:34;;;;;;;11.32;3.92;;;29.80;99.90;;;;;;5042511;28;20185;-80
2022/06/19 09:57:27;;;;;;;10.38;3.42;;;29.70;99.90;;;;;;5044827;28;20280;-80
2022/06/19 10:00:01;;;;;;;17.80;3.80;;;29.60;99.90;;;;;;5039316;28;20210;-80
2022/06/19 10:02:54;;;;;;;12.68;3.80;;;29.70;99.90;;;;;;5044576;28;20851;-79
2022/06/19 10:06:10;;;;;;;13.00;3.95;;;29.80;99.90;;;;;;5037847;28;20183;-79
2022/06/19 10:08:48;;;;;;;10.95;3.67;;;29.80;99.90;;;;;;5036732;28;20190;-79
2022/06/19 10:11:39;;;;;;;6.00;3.30;;;30.00;99.90;;;;;;5037452;28;20191;-79
2022/06/19 10:14:35;;;;;;;10.52;3.42;;;30.00;99.90;;;;;;5022049;28;20268;-79
2022/06/19 10:17:01;;;;;;;6.53;3.30;;;30.20;99.90;;;;;;5049060;28;20191;-80
2022/06/19 10:20:19;;;;;;;7.30;3.58;;;30.20;99.90;;;;;;5043431;28;20354;-80
2022/06/19 10:23:00;;;;;;;11.18;3.42;;;30.30;99.90;;;;;;5006852;28;20204;-79
2022/06/19 10:26:04;;;;;;;11.07;4.15;;;30.30;99.90;;;;;;5032563;28;20308;-79
2022/06/19 10:29:30;;;;;;;15.63;3.90;;;30.30;99.90;;;;;;5030152;28;20188;-79
2022/06/19 10:32:20;;;;;;;7.70;3.20;;;30.40;99.90;;;;;;5039731;28;20187;-82
2022/06/19 10:35:41;;;;;;;7.70;3.35;;;30.30;99.90;;;;;;5031264;28;20180;-79
2022/06/19 10:38:34;;;;;;;9.55;3.75;;;30.20;99.90;;;;;;5016964;28;20194;-80
2022/06/19 10:44:23;;;;;;;8.05;3.22;;;30.50;99.90;;;;;;5038644;28;20187;-80
2022/06/19 10:47:25;;;;;;;11.02;3.58;;;30.40;99.90;;;;;;5048628;28;20191;-80
2022/06/19 10:50:31;;;;;;;9.57;3.90;;;30.40;99.90;;;;;;5028880;28;20234;-79
2022/06/19 10:53:41;;;;;;;5.78;3.40;;;30.30;99.90;;;;;;5046321;28;20537;-79
2022/06/19 10:56:40;;;;;;;3.53;3.00;;;30.40;99.90;;;;;;5046081;28;20195;-79
2022/06/19 10:59:07;;;;;;;7.93;3.38;;;30.40;99.90;;;;;;5035363;28;20314;-81
2022/06/19 11:04:39;;;;;;;11.80;3.55;;;30.30;99.90;;;;;;5061572;28;20180;-80
2022/06/19 11:07:16;;;;;;;8.40;3.35;;;30.20;99.90;;;;;;5053137;28;20667;-79
2022/06/19 11:09:50;;;;;;;8.45;3.40;;;30.30;99.90;;;;;;5033727;28;20194;-80
2022/06/19 11:12:42;;;;;;;10.35;3.40;;;30.20;99.90;;;;;;5034338;28;20186;-79
2022/06/19 11:15:55;;;;;;;8.50;4.10;;;30.20;99.90;;;;;;5012843;28;20517;-79
2022/06/19 11:18:26;;;;;;;5.45;3.30;;;30.20;99.90;;;;;;5029651;28;20191;-80
2022/06/19 11:21:12;;;;;;;10.15;3.70;;;30.20;99.90;;;;;;5035832;28;20206;-80
2022/06/19 11:24:04;;;;;;;9.43;3.70;;;30.20;99.90;;;;;;5029220;28;20215;-80
2022/06/19 11:26:58;;;;;;;6.95;3.60;;;30.20;99.90;;;;;;5038378;28;20517;-80
2022/06/19 11:29:29;;;;;;;9.77;3.95;;;30.10;99.90;;;;;;5016099;28;20192;-80
2022/06/19 11:32:13;;;;;;;12.25;4.20;;;30.10;99.90;;;;;;5035501;28;20282;-80
2022/06/19 11:35:07;;;;;;;8.93;3.60;;;30.10;99.90;;;;;;5032697;28;20211;-80
2022/06/19 11:37:46;;;;;;;11.90;3.70;;;29.90;99.90;;;;;;5029308;28;20187;-80
2022/06/19 11:40:28;;;;;;;18.98;3.90;;;30.10;99.90;;;;;;5047394;28;20191;-79
2022/06/19 11:43:00;;;;;;;9.02;3.70;;;30.10;99.90;;;;;;5031955;28;20195;-80
2022/06/19 11:45:35;;;;;;;11.05;3.78;;;30.00;99.90;;;;;;5047439;28;20191;-79
2022/06/19 11:48:14;;;;;;;12.13;4.45;;;30.10;99.90;;;;;;5046816;28;20184;-80
2022/06/19 11:50:50;;;;;;;10.30;4.15;;;30.10;99.90;;;;;;5033736;28;20188;-80
2022/06/19 11:53:24;;;;;;;16.30;4.28;;;30.10;99.90;;;;;;5054631;28;20278;-79
2022/06/19 11:56:34;;;;;;;9.63;3.90;;;30.00;99.90;;;;;;5023735;28;20278;-80
2022/06/19 11:59:06;;;;;;;9.68;4.03;;;29.90;99.90;;;;;;5042467;28;20207;-80
2022/06/19 12:01:44;;;;;;;8.45;3.95;;;30.00;99.90;;;;;;5048253;28;20847;-80
2022/06/19 12:04:39;;;;;;;12.48;4.65;;;29.60;99.90;;;;;;5030716;28;20750;-80
2022/06/19 12:07:18;;;;;;;9.82;3.80;;;30.00;99.90;;;;;;5041245;28;20188;-80
2022/06/19 12:10:03;;;;;;;8.60;3.97;;;29.90;99.90;;;;;;5027878;28;20184;-80
2022/06/19 12:12:34;;;;;;;9.60;4.32;;;29.90;99.90;;;;;;5032754;28;20215;-80
2022/06/19 12:15:27;;;;;;;13.27;4.43;;;29.60;99.90;;;;;;5030451;28;20245;-80
2022/06/19 12:18:14;;;;;;;12.65;4.43;;;29.70;99.90;;;;;;5041619;28;20295;-80
2022/06/19 12:20:57;;;;;;;14.38;4.90;;;29.80;99.90;;;;;;5019272;28;20215;-80
2022/06/19 12:23:36;;;;;;;11.45;3.88;;;29.60;99.90;;;;;;5065717;28;20190;-80
2022/06/19 12:26:18;;;;;;;8.35;4.18;;;29.80;99.90;;;;;;5020112;28;20184;-81
2022/06/19 12:28:54;;;;;;;14.60;4.35;;;29.60;99.90;;;;;;5052522;28;20215;-81
2022/06/19 12:31:37;;;;;;;9.48;4.25;;;29.60;99.90;;;;;;5035806;28;20183;-83
2022/06/19 12:34:30;;;;;;;14.25;4.15;;;29.80;99.90;;;;;;5037331;28;20243;-80
2022/06/19 12:37:00;;;;;;;12.20;4.72;;;29.70;99.90;;;;;;5055722;28;20274;-81
2022/06/19 12:39:34;;;;;;;14.88;4.45;;;29.50;99.90;;;;;;5054700;28;20211;-80
2022/06/19 12:42:50;;;;;;;11.52;4.00;;;29.40;99.90;;;;;;5053037;28;20925;-80
2022/06/19 12:45:56;;;;;;;13.60;4.88;;;29.50;99.90;;;;;;5026719;28;20241;-81
2022/06/19 12:49:16;;;;;;;14.30;4.53;;;29.50;99.90;;;;;;5025272;28;20258;-80
2022/06/19 12:52:01;;;;;;;16.42;4.60;;;29.40;99.90;;;;;;5048305;28;20183;-80
2022/06/19 12:55:14;;;;;;;12.18;4.70;;;29.30;99.90;;;;;;5048458;28;20192;-80
2022/06/19 12:58:16;;;;;;;16.02;4.85;;;29.30;99.90;;;;;;5046244;28;20659;-80
2022/06/19 13:00:52;;;;;;;15.32;4.55;;;29.40;99.90;;;;;;5027196;28;20211;-79
2022/06/19 13:03:44;;;;;;;18.52;4.80;;;29.50;99.90;;;;;;5052249;28;20285;-79
2022/06/19 13:06:43;;;;;;;12.13;5.00;;;29.30;99.90;;;;;;5030206;28;20279;-80
2022/06/19 13:09:52;;;;;;;13.77;4.55;;;29.20;99.90;;;;;;5029082;28;20656;-79
2022/06/19 13:12:28;;;;;;;12.48;4.72;;;29.20;99.90;;;;;;5019671;28;20184;-80
2022/06/19 13:15:40;;;;;;;13.85;5.05;;;29.30;99.90;;;;;;5053599;28;20183;-80
2022/06/19 13:18:21;;;;;;;9.88;4.88;;;29.30;99.90;;;;;;5065174;28;20188;-81
2022/06/19 13:20:57;;;;;;;14.60;5.05;;;29.20;99.90;;;;;;5034743;28;20184;-81
2022/06/19 13:23:49;;;;;;;13.50;5.07;;;29.20;99.90;;;;;;5052677;28;20241;-81
2022/06/19 13:27:16;;;;;;;15.02;5.03;;;29.00;99.90;;;;;;5032361;28;20191;-80
2022/06/19 13:30:16;;;;;;;15.25;4.70;;;28.90;99.90;;;;;;5021698;28;20195;-80
2022/06/19 13:33:35;;;;;;;11.00;4.82;;;28.90;99.90;;;;;;5041362;28;20215;-80
2022/06/19 13:36:10;;;;;;;11.63;5.20;;;28.80;99.90;;;;;;5035991;28;20215;-79
2022/06/19 13:38:58;;;;;;;10.68;4.88;;;28.70;99.90;;;;;;5044803;28;20539;-79
2022/06/19 13:41:53;;;;;;;17.35;5.07;;;28.60;99.90;;;;;;5050700;28;20216;-80
2022/06/19 13:44:53;;;;;;;11.05;4.68;;;28.60;99.90;;;;;;5046019;28;20242;-79